Time;durP1;ratioP1;P1;durP2;ratioP2;P2;SDS_P1;SDS_P2;PMS_P1;PMS_P2;Temp;Humidity;BMP_temperature;BMP_pressure;BME280_temperature;BME280_humidity;BME280_pressure;Samples;Min_cycle;Max_cycle;Signal;HPM_P1;HPM_P2
2023/04/12 00:02:12;;;;;;;;;;;;;;;-140.72;100.00;52900.19;5028004;28;19921;-72
2023/04/12 00:04:38;;;;;;;;;;;;;;;-140.72;100.00;52906.28;5029722;28;19928;-72
2023/04/12 00:07:04;;;;;;;;;;;;;;;-140.72;100.00;52914.41;5032385;28;19923;-71
2023/04/12 00:09:30;;;;;;;;;;;;;;;-140.72;100.00;52896.16;5035969;28;19957;-72
2023/04/12 00:11:57;;;;;;;;;;;;;;;-140.72;100.00;52904.25;5038588;27;20009;-72
2023/04/12 00:14:22;;;;;;;;;;;;;;;-140.72;100.00;52910.34;5028832;28;19978;-72
2023/04/12 00:16:58;;;;;;;;;;;;;;;-140.72;100.00;52916.44;5020248;28;20323;-72
2023/04/12 00:19:26;;;;;;;;;;;;;;;-140.72;100.00;52914.41;5036688;28;19917;-72
2023/04/12 00:22:22;;;;;;;;;;;;;;;-140.72;100.00;52898.16;5029351;28;20486;-72
2023/04/12 00:24:48;;;;;;;;;;;;;;;-140.72;100.00;52914.41;5021029;28;19964;-72
2023/04/12 00:27:13;;;;;;;;;;;;;;;-140.72;100.00;52894.13;5027946;28;19956;-72
2023/04/12 00:29:38;;;;;;;;;;;;;;;-140.72;100.00;52950.94;5020264;28;19972;-72
2023/04/12 00:32:04;;;;;;;;;;;;;;;-140.72;100.00;52888.03;5027046;28;19921;-72
2023/04/12 00:34:29;;;;;;;;;;;;;;;-140.72;100.00;52894.13;5026933;28;19929;-72
2023/04/12 00:36:55;;;;;;;;;;;;;;;-140.72;100.00;52910.34;5028246;28;19921;-72
2023/04/12 00:39:20;;;;;;;;;;;;;;;-140.72;100.00;52902.22;5026523;28;20067;-72
2023/04/12 00:41:45;;;;;;;;;;;;;;;-140.72;100.00;52908.31;5020743;28;19921;-72
2023/04/12 00:44:11;;;;;;;;;;;;;;;-140.72;100.00;52871.78;5023130;28;20057;-72
2023/04/12 00:46:37;;;;;;;;;;;;;;;-140.72;100.00;52914.41;5023827;28;19921;-72
2023/04/12 00:49:02;;;;;;;;;;;;;;;-140.72;100.00;52942.81;5024082;28;19925;-72
2023/04/12 00:51:32;;;;;;;;;;;;;;;-140.72;100.00;52914.41;5023608;28;19925;-72
2023/04/12 00:53:58;;;;;;;;;;;;;;;-140.72;100.00;52894.13;5025381;28;19928;-72
2023/04/12 00:56:26;;;;;;;;;;;;;;;-140.72;100.00;52857.59;5025379;28;19925;-72
2023/04/12 00:58:52;;;;;;;;;;;;;;;-140.72;100.00;52924.56;5025020;28;20303;-72
2023/04/12 01:01:18;;;;;;;;;;;;;;;-140.72;100.00;52938.75;5022209;28;19933;-73
2023/04/12 01:03:43;;;;;;;;;;;;;;;-140.72;100.00;52936.72;5024613;28;19940;-72
2023/04/12 01:06:15;;;;;;;;;;;;;;;-140.72;100.00;52912.38;5025053;28;19928;-72
2023/04/12 01:08:46;;;;;;;;;;;;;;;-140.72;100.00;52879.91;5021076;28;20395;-72
2023/04/12 01:11:16;;;;;;;;;;;;;;;-140.72;100.00;52900.19;5026275;28;20007;-72
2023/04/12 01:13:51;;;;;;;;;;;;;;;-140.72;100.00;52924.56;5025891;28;20019;-72
2023/04/12 01:16:23;;;;;;;;;;;;;;;-140.72;100.00;52920.50;5025893;28;19921;-72
2023/04/12 01:18:50;;;;;;;;;;;;;;;-140.72;100.00;52906.28;5025197;28;20001;-72
2023/04/12 01:21:17;;;;;;;;;;;;;;;-140.72;100.00;52890.06;5028669;28;19928;-72
2023/04/12 01:23:58;;;;;;;;;;;;;;;-140.72;100.00;52930.66;5024085;28;19922;-72
2023/04/12 01:26:24;;;;;;;;;;;;;;;-140.72;100.00;52930.66;5027014;28;19966;-72
2023/04/12 01:28:51;;;;;;;;;;;;;;;-140.72;100.00;52890.06;5023584;28;19921;-72
2023/04/12 01:31:18;;;;;;;;;;;;;;;-140.72;100.00;52914.41;5020095;28;20384;-72
2023/04/12 01:33:44;;;;;;;;;;;;;;;-140.72;100.00;52922.53;5022269;28;20020;-72
2023/04/12 01:36:17;;;;;;;;;;;;;;;-140.72;100.00;52916.44;5026165;28;21074;-72
2023/04/12 01:38:42;;;;;;;;;;;;;;;-140.72;100.00;52946.88;5026591;27;19985;-72
2023/04/12 01:41:13;;;;;;;;;;;;;;;-140.72;100.00;52930.66;5025702;28;19921;-72
2023/04/12 01:43:42;;;;;;;;;;;;;;;-140.72;100.00;52894.13;5039173;28;19921;-72
2023/04/12 01:46:07;;;;;;;;;;;;;;;-140.72;100.00;52914.41;5024115;28;19933;-72
2023/04/12 01:48:33;;;;;;;;;;;;;;;-140.72;100.00;52910.34;5025843;27;19966;-72
2023/04/12 01:51:06;;;;;;;;;;;;;;;-140.72;100.00;52902.22;5026553;28;19960;-72
2023/04/12 01:53:38;;;;;;;;;;;;;;;-140.72;100.00;52922.53;5027977;28;20395;-72
2023/04/12 01:56:07;;;;;;;;;;;;;;;-140.72;100.00;52914.41;5020495;28;19921;-72
2023/04/12 01:58:32;;;;;;;;;;;;;;;-140.72;100.00;52883.97;5024767;28;20016;-72
2023/04/12 02:00:59;;;;;;;;;;;;;;;-140.72;100.00;52930.66;5021365;28;20020;-74
2023/04/12 02:03:25;;;;;;;;;;;;;;;-140.72;100.00;52944.84;5020210;28;19921;-73
2023/04/12 02:05:51;;;;;;;;;;;;;;;-140.72;100.00;52883.97;5023789;28;19928;-73
2023/04/12 02:08:16;;;;;;;;;;;;;;;-140.72;100.00;52932.66;5027899;28;20284;-72
2023/04/12 02:10:42;;;;;;;;;;;;;;;-140.72;100.00;52914.41;5023811;28;19932;-72
2023/04/12 02:13:07;;;;;;;;;;;;;;;-140.72;100.00;52904.25;5025523;28;19966;-72
2023/04/12 02:15:33;;;;;;;;;;;;;;;-140.72;100.00;52934.69;5021073;28;19966;-72
2023/04/12 02:17:58;;;;;;;;;;;;;;;-140.72;100.00;52906.28;5020343;28;19965;-72
2023/04/12 02:20:24;;;;;;;;;;;;;;;-140.72;100.00;52934.69;5027625;28;19928;-72
2023/04/12 02:22:50;;;;;;;;;;;;;;;-140.72;100.00;52896.16;5020541;28;19999;-72
2023/04/12 02:25:18;;;;;;;;;;;;;;;-140.72;100.00;52896.16;5021437;28;20035;-72
2023/04/12 02:27:51;;;;;;;;;;;;;;;-140.72;100.00;52930.66;5024735;28;19921;-72
2023/04/12 02:30:16;;;;;;;;;;;;;;;-140.72;100.00;52922.53;5024207;28;19925;-72
2023/04/12 02:32:44;;;;;;;;;;;;;;;-140.72;100.00;52898.16;5022229;28;19982;-73
2023/04/12 02:35:11;;;;;;;;;;;;;;;-140.72;100.00;52904.25;5018158;28;19971;-73
2023/04/12 02:37:36;;;;;;;;;;;;;;;-140.72;100.00;52910.34;5024231;28;19917;-73
2023/04/12 02:40:03;;;;;;;;;;;;;;;-140.72;100.00;52955.00;5029360;28;19940;-73
2023/04/12 02:42:28;;;;;;;;;;;;;;;-140.72;100.00;52904.25;5021204;28;19921;-73
2023/04/12 02:44:54;;;;;;;;;;;;;;;-140.72;100.00;52948.91;5030173;28;19917;-73
2023/04/12 02:47:19;;;;;;;;;;;;;;;-140.72;100.00;52918.47;5030742;28;20390;-73
2023/04/12 02:49:44;;;;;;;;;;;;;;;-140.72;100.00;52902.22;5035147;28;19927;-73
2023/04/12 02:52:09;;;;;;;;;;;;;;;-140.72;100.00;52908.31;5025636;28;19929;-72
2023/04/12 02:54:35;;;;;;;;;;;;;;;-140.72;100.00;52890.06;5031183;28;20008;-72
2023/04/12 02:57:00;;;;;;;;;;;;;;;-140.72;100.00;52920.50;5028842;28;19979;-72
2023/04/12 02:59:25;;;;;;;;;;;;;;;-140.72;100.00;52881.94;5043501;28;19928;-72
2023/04/12 03:01:51;;;;;;;;;;;;;;;-140.72;100.00;52888.03;5029201;28;19925;-72
2023/04/12 03:04:16;;;;;;;;;;;;;;;-140.72;100.00;52894.13;5035624;28;19944;-72
2023/04/12 03:06:51;;;;;;;;;;;;;;;-140.72;100.00;52922.53;5028015;28;20705;-72
2023/04/12 03:09:16;;;;;;;;;;;;;;;-140.72;100.00;52930.66;5026443;28;19928;-72
2023/04/12 03:11:41;;;;;;;;;;;;;;;-140.72;100.00;52938.75;5021169;28;19922;-72
2023/04/12 03:14:07;;;;;;;;;;;;;;;-140.72;100.00;52865.69;5018727;28;19921;-72
2023/04/12 03:16:34;;;;;;;;;;;;;;;-140.72;100.00;52922.53;5025621;28;19928;-72
2023/04/12 03:18:59;;;;;;;;;;;;;;;-140.72;100.00;52910.34;5019617;28;20292;-72
2023/04/12 03:21:25;;;;;;;;;;;;;;;-140.72;100.00;52918.47;5025393;28;19927;-73
2023/04/12 03:23:51;;;;;;;;;;;;;;;-140.72;100.00;52930.66;5024307;28;20017;-73
2023/04/12 03:26:19;;;;;;;;;;;;;;;-140.72;100.00;52922.53;5022901;28;19925;-73
2023/04/12 03:28:44;;;;;;;;;;;;;;;-140.72;100.00;52922.53;5034415;28;19920;-72
2023/04/12 03:31:11;;;;;;;;;;;;;;;-140.72;100.00;52936.72;5031814;28;19930;-73
2023/04/12 03:33:36;;;;;;;;;;;;;;;-140.72;100.00;52914.41;5039625;28;19917;-73
2023/04/12 03:36:02;;;;;;;;;;;;;;;-140.72;100.00;52883.97;5027511;27;20260;-73
2023/04/12 03:38:27;;;;;;;;;;;;;;;-140.72;100.00;52932.66;5032542;28;20023;-72
2023/04/12 03:40:53;;;;;;;;;;;;;;;-140.72;100.00;52904.25;5026949;28;19921;-73
2023/04/12 03:43:18;;;;;;;;;;;;;;;-140.72;100.00;52922.53;5034597;28;20442;-72
2023/04/12 03:45:43;;;;;;;;;;;;;;;-140.72;100.00;52928.63;5024370;28;19967;-72
2023/04/12 03:48:10;;;;;;;;;;;;;;;-140.72;100.00;52916.44;5032840;28;20290;-72
2023/04/12 03:50:43;;;;;;;;;;;;;;;-140.72;100.00;52869.75;5028548;28;19921;-72
2023/04/12 03:53:12;;;;;;;;;;;;;;;-140.72;100.00;52906.28;5024145;28;20287;-72
2023/04/12 03:55:37;;;;;;;;;;;;;;;-140.72;100.00;52896.16;5025639;28;19921;-72
2023/04/12 03:58:03;;;;;;;;;;;;;;;-140.72;100.00;52912.38;5024654;28;20098;-73
2023/04/12 04:00:30;;;;;;;;;;;;;;;-140.72;100.00;52922.53;5024459;28;20334;-73
2023/04/12 04:02:57;;;;;;;;;;;;;;;-140.72;100.00;52914.41;5023777;28;19922;-73
2023/04/12 04:05:22;;;;;;;;;;;;;;;-140.72;100.00;52898.16;5025661;28;19921;-73
2023/04/12 04:07:48;;;;;;;;;;;;;;;-140.72;100.00;52910.34;5025477;28;20379;-72
2023/04/12 04:10:13;;;;;;;;;;;;;;;-140.72;100.00;52965.16;5043502;27;20012;-72
2023/04/12 04:12:38;;;;;;;;;;;;;;;-140.72;100.00;52920.50;5027472;28;19967;-72
2023/04/12 04:15:04;;;;;;;;;;;;;;;-140.72;100.00;52938.75;5024473;28;19921;-73
2023/04/12 04:17:29;;;;;;;;;;;;;;;-140.72;100.00;52886.00;5025427;28;19940;-73
2023/04/12 04:19:54;;;;;;;;;;;;;;;-140.72;100.00;52926.59;5022346;28;19925;-73
2023/04/12 04:22:20;;;;;;;;;;;;;;;-140.72;100.00;52877.88;5026983;28;19928;-73
2023/04/12 04:24:47;;;;;;;;;;;;;;;-140.72;100.00;52942.81;5028445;27;19968;-76
2023/04/12 04:27:14;;;;;;;;;;;;;;;-140.72;100.00;52930.66;5026552;28;20287;-71
2023/04/12 04:29:44;;;;;;;;;;;;;;;-140.72;100.00;52942.81;5027308;28;19927;-72
2023/04/12 04:32:09;;;;;;;;;;;;;;;-140.72;100.00;52902.22;5027914;28;20338;-73
2023/04/12 04:34:34;;;;;;;;;;;;;;;-140.72;100.00;52871.78;5035816;28;20059;-71
2023/04/12 04:37:00;;;;;;;;;;;;;;;-140.72;100.00;52896.16;5028502;28;19922;-72
2023/04/12 04:39:26;;;;;;;;;;;;;;;-140.72;100.00;52896.16;5027288;28;19925;-72
2023/04/12 04:41:53;;;;;;;;;;;;;;;-140.72;100.00;52924.56;5030006;28;19925;-72
2023/04/12 04:44:18;;;;;;;;;;;;;;;-140.72;100.00;52922.53;5028276;28;19921;-73
2023/04/12 04:46:44;;;;;;;;;;;;;;;-140.72;100.00;52869.75;5029231;28;19929;-72
2023/04/12 04:49:09;;;;;;;;;;;;;;;-140.72;100.00;52922.53;5026810;28;19928;-73
2023/04/12 04:51:35;;;;;;;;;;;;;;;-140.72;100.00;52898.16;5023313;28;19922;-73
2023/04/12 04:54:01;;;;;;;;;;;;;;;-140.72;100.00;52888.03;5026429;28;19922;-73
2023/04/12 04:56:26;;;;;;;;;;;;;;;-140.72;100.00;52894.13;5040680;27;19921;-72
2023/04/12 04:58:52;;;;;;;;;;;;;;;-140.72;100.00;52896.16;5029759;28;19986;-73
2023/04/12 05:01:17;;;;;;;;;;;;;;;-140.72;100.00;52912.38;5027911;28;19924;-73
2023/04/12 05:03:43;;;;;;;;;;;;;;;-140.72;100.00;52908.31;5024192;28;19937;-73
2023/04/12 05:06:09;;;;;;;;;;;;;;;-140.72;100.00;52890.06;5038544;28;20011;-73
2023/04/12 05:08:34;;;;;;;;;;;;;;;-140.72;100.00;52910.34;5031936;27;19945;-72
2023/04/12 05:11:00;;;;;;;;;;;;;;;-140.72;100.00;52930.66;5029532;28;19917;-73
2023/04/12 05:13:25;;;;;;;;;;;;;;;-140.72;100.00;52892.09;5032191;28;19925;-74
2023/04/12 05:15:50;;;;;;;;;;;;;;;-140.72;100.00;52910.34;5029447;28;20377;-73
2023/04/12 05:18:16;;;;;;;;;;;;;;;-140.72;100.00;52892.09;5028481;28;20016;-76
2023/04/12 05:20:42;;;;;;;;;;;;;;;-140.72;100.00;52894.13;5032194;28;20299;-73
2023/04/12 05:23:07;;;;;;;;;;;;;;;-140.72;100.00;52896.16;5025912;28;19928;-72
2023/04/12 05:25:33;;;;;;;;;;;;;;;-140.72;100.00;52875.84;5026417;28;19921;-72
2023/04/12 05:27:58;;;;;;;;;;;;;;;-140.72;100.00;52865.69;5030971;27;19921;-72
2023/04/12 05:30:23;;;;;;;;;;;;;;;-140.72;100.00;52912.38;5027037;28;20269;-72
2023/04/12 05:32:49;;;;;;;;;;;;;;;-140.72;100.00;52908.31;5027497;28;19973;-72
2023/04/12 05:35:14;;;;;;;;;;;;;;;-140.72;100.00;52857.59;5026741;28;19922;-73
2023/04/12 05:37:39;;;;;;;;;;;;;;;-140.72;100.00;52857.59;5027062;28;20760;-72
2023/04/12 05:40:06;;;;;;;;;;;;;;;-140.72;100.00;52898.16;5027740;28;19917;-72
2023/04/12 05:42:31;;;;;;;;;;;;;;;-140.72;100.00;52865.69;5026262;28;19921;-73
2023/04/12 05:44:56;;;;;;;;;;;;;;;-140.72;100.00;52898.16;5027888;28;20012;-72
2023/04/12 05:47:26;;;;;;;;;;;;;;;-140.72;100.00;52890.06;5028154;28;19921;-73
2023/04/12 05:49:52;;;;;;;;;;;;;;;-140.72;100.00;52890.06;5024799;28;19925;-73
2023/04/12 05:52:17;;;;;;;;;;;;;;;-140.72;100.00;52867.72;5027898;28;19925;-71
2023/04/12 05:54:43;;;;;;;;;;;;;;;-140.72;100.00;52881.94;5025501;27;20398;-73
2023/04/12 05:57:08;;;;;;;;;;;;;;;-140.72;100.00;52890.06;5026673;28;20027;-73
2023/04/12 05:59:33;;;;;;;;;;;;;;;-140.72;100.00;52888.03;5031948;27;19922;-72
2023/04/12 06:01:59;;;;;;;;;;;;;;;-140.72;100.00;52906.28;5033381;28;20395;-72
2023/04/12 06:04:25;;;;;;;;;;;;;;;-140.72;100.00;52843.38;5034782;28;20443;-73
2023/04/12 06:06:50;;;;;;;;;;;;;;;-140.72;100.00;52886.00;5031463;28;19948;-73
2023/04/12 06:09:15;;;;;;;;;;;;;;;-140.72;100.00;52867.72;5020110;28;20295;-73
2023/04/12 06:11:40;;;;;;;;;;;;;;;-140.72;100.00;52877.88;5035627;28;19989;-73
2023/04/12 06:14:07;;;;;;;;;;;;;;;-140.72;100.00;52863.66;5029000;28;19922;-72
2023/04/12 06:16:32;;;;;;;;;;;;;;;-140.72;100.00;52914.41;5021223;28;20332;-72
2023/04/12 06:18:57;;;;;;;;;;;;;;;-140.72;100.00;52894.13;5027088;28;19922;-71
2023/04/12 06:21:23;;;;;;;;;;;;;;;-140.72;100.00;52906.28;5028512;28;19966;-71
2023/04/12 06:23:48;;;;;;;;;;;;;;;-140.72;100.00;52890.06;5038797;27;19922;-70
2023/04/12 06:26:13;;;;;;;;;;;;;;;-140.72;100.00;52877.88;5033417;28;19943;-71
2023/04/12 06:28:39;;;;;;;;;;;;;;;-140.72;100.00;52886.00;5028134;28;19922;-70
2023/04/12 06:31:04;;;;;;;;;;;;;;;-140.72;100.00;52859.63;5031448;28;19921;-72
2023/04/12 06:33:29;;;;;;;;;;;;;;;-140.72;100.00;52867.72;5026031;28;20367;-71
2023/04/12 06:35:55;;;;;;;;;;;;;;;-140.72;100.00;52892.09;5023304;28;20004;-71
2023/04/12 06:38:20;;;;;;;;;;;;;;;-140.72;100.00;52881.94;5027430;28;19928;-71
2023/04/12 06:40:45;;;;;;;;;;;;;;;-140.72;100.00;52849.47;5030286;28;20028;-71
2023/04/12 06:43:11;;;;;;;;;;;;;;;-140.72;100.00;52894.13;5027092;28;19925;-71
2023/04/12 06:45:36;;;;;;;;;;;;;;;-140.72;100.00;52898.16;5028095;28;19951;-73
2023/04/12 06:48:01;;;;;;;;;;;;;;;-140.72;100.00;52861.66;5022027;28;20034;-71
2023/04/12 06:50:27;;;;;;;;;;;;;;;-140.72;100.00;52877.88;5025025;28;19978;-70
2023/04/12 06:52:52;;;;;;;;;;;;;;;-140.72;100.00;52857.59;5028912;28;19957;-71
2023/04/12 06:55:17;;;;;;;;;;;;;;;-140.72;100.00;52837.28;5030210;28;19986;-72
2023/04/12 06:57:43;;;;;;;;;;;;;;;-140.72;100.00;52847.44;5026430;28;19928;-72
2023/04/12 07:00:09;;;;;;;;;;;;;;;-140.72;100.00;52837.28;5023067;28;20439;-73
2023/04/12 07:02:34;;;;;;;;;;;;;;;-140.72;100.00;52873.81;5025448;28;19926;-73
2023/04/12 07:05:00;;;;;;;;;;;;;;;-140.72;100.00;52837.28;5024137;28;20009;-73
2023/04/12 07:07:25;;;;;;;;;;;;;;;-140.72;100.00;52847.44;5027883;28;19925;-73
2023/04/12 07:09:51;;;;;;;;;;;;;;;-140.72;100.00;52845.41;5020569;28;19921;-73
2023/04/12 07:12:16;;;;;;;;;;;;;;;-140.72;100.00;52804.81;5029845;28;19927;-72
2023/04/12 07:14:41;;;;;;;;;;;;;;;-140.72;100.00;52898.16;5030956;28;20379;-73
2023/04/12 07:17:07;;;;;;;;;;;;;;;-140.72;100.00;52833.22;5023308;28;19926;-73
2023/04/12 07:19:32;;;;;;;;;;;;;;;-140.72;100.00;52817.00;5024118;28;20371;-72
2023/04/12 07:21:59;;;;;;;;;;;;;;;-140.72;100.00;52847.44;5025994;28;19956;-72
2023/04/12 07:24:24;;;;;;;;;;;;;;;-140.72;100.00;52849.47;5032475;28;19929;-73
2023/04/12 07:26:56;;;;;;;;;;;;;;;-140.72;100.00;52827.16;5021201;28;19921;-73
2023/04/12 07:29:21;;;;;;;;;;;;;;;-140.72;100.00;52827.16;5025582;28;20295;-73
2023/04/12 07:31:46;;;;;;;;;;;;;;;-140.72;100.00;52823.09;5025030;28;19921;-73
2023/04/12 07:34:11;;;;;;;;;;;;;;;-140.72;100.00;52883.97;5021719;28;19981;-72
2023/04/12 07:36:37;;;;;;;;;;;;;;;-140.72;100.00;52814.97;5022985;28;19960;-78
2023/04/12 07:39:02;;;;;;;;;;;;;;;-140.72;100.00;52817.00;5023839;28;19921;-74
2023/04/12 07:41:27;;;;;;;;;;;;;;;-140.72;100.00;52831.19;5029289;28;20372;-73
2023/04/12 07:43:52;;;;;;;;;;;;;;;-140.72;100.00;52782.50;5027185;28;19965;-72
2023/04/12 07:46:18;;;;;;;;;;;;;;;-140.72;100.00;52792.66;5020000;28;20302;-74
2023/04/12 07:48:43;;;;;;;;;;;;;;;-140.72;100.00;52776.41;5022785;28;20439;-74
2023/04/12 07:51:08;;;;;;;;;;;;;;;-140.72;100.00;52829.19;5022212;28;19929;-73
2023/04/12 07:53:33;;;;;;;;;;;;;;;-140.72;100.00;52819.03;5031626;28;19933;-74
2023/04/12 07:55:59;;;;;;;;;;;;;;;-140.72;100.00;52796.72;5035259;28;19960;-74
2023/04/12 07:58:24;;;;;;;;;;;;;;;-140.72;100.00;52845.41;5030506;28;19929;-73
2023/04/12 08:00:51;;;;;;;;;;;;;;;-140.72;100.00;52764.25;5029791;28;19929;-74
2023/04/12 08:03:17;;;;;;;;;;;;;;;-140.72;100.00;52788.59;5027180;28;19921;-77
2023/04/12 08:05:43;;;;;;;;;;;;;;;-140.72;100.00;52762.22;5022850;28;19932;-71
2023/04/12 08:08:09;;;;;;;;;;;;;;;-140.72;100.00;52770.31;5022284;28;19932;-71
2023/04/12 08:10:38;;;;;;;;;;;;;;;-140.72;100.00;52766.25;5027137;28;19922;-72
2023/04/12 08:13:04;;;;;;;;;;;;;;;-140.72;100.00;52768.28;5023618;28;20397;-73
2023/04/12 08:15:29;;;;;;;;;;;;;;;-140.72;100.00;52752.06;5029824;28;19925;-71
2023/04/12 08:17:54;;;;;;;;;;;;;;;-140.72;100.00;52752.06;5026473;28;19925;-71
2023/04/12 08:20:19;;;;;;;;;;;;;;;-140.72;100.00;52808.88;5022936;28;19922;-71
2023/04/12 08:22:45;;;;;;;;;;;;;;;-140.72;100.00;52806.84;5024106;28;19922;-71
2023/04/12 08:25:10;;;;;;;;;;;;;;;-140.72;100.00;52748.00;5024413;28;20012;-71
2023/04/12 08:27:38;;;;;;;;;;;;;;;-140.72;100.00;52737.84;5026186;28;19949;-71
2023/04/12 08:30:03;;;;;;;;;;;;;;;-140.72;100.00;52748.00;5027892;28;20295;-71
2023/04/12 08:32:29;;;;;;;;;;;;;;;-140.72;100.00;52778.44;5026031;28;19925;-71
2023/04/12 08:34:54;;;;;;;;;;;;;;;-140.72;100.00;52752.06;5021529;28;19929;-71
2023/04/12 08:37:20;;;;;;;;;;;;;;;-140.72;100.00;52756.13;5028886;28;19976;-70
2023/04/12 08:39:45;;;;;;;;;;;;;;;-140.72;100.00;52792.66;5028795;28;19960;-72
2023/04/12 08:42:12;;;;;;;;;;;;;;;-140.72;100.00;52725.69;5028184;28;20047;-71
2023/04/12 08:44:38;;;;;;;;;;;;;;;-140.72;100.00;52727.72;5022537;28;19921;-72
2023/04/12 08:47:04;;;;;;;;;;;;;;;-140.72;100.00;52735.81;5026718;28;19974;-70
2023/04/12 08:49:31;;;;;;;;;;;;;;;-140.72;100.00;52752.06;5025715;28;20341;-71
2023/04/12 08:51:59;;;;;;;;;;;;;;;-140.72;100.00;52709.44;5023447;28;19921;-72
2023/04/12 08:54:24;;;;;;;;;;;;;;;-140.72;100.00;52693.22;5025767;28;19964;-71
2023/04/12 08:56:52;;;;;;;;;;;;;;;-140.72;100.00;52721.63;5022948;28;20387;-73
2023/04/12 08:59:17;;;;;;;;;;;;;;;-140.72;100.00;52731.75;5025224;28;20019;-73
2023/04/12 09:01:42;;;;;;;;;;;;;;;-140.72;100.00;52658.72;5024481;28;20020;-71
2023/04/12 09:04:08;;;;;;;;;;;;;;;-140.72;100.00;52748.00;5024846;28;20450;-72
2023/04/12 09:06:33;;;;;;;;;;;;;;;-140.72;100.00;52756.13;5026444;28;19929;-71
2023/04/12 09:09:00;;;;;;;;;;;;;;;-140.72;100.00;52748.00;5026163;28;20023;-71
2023/04/12 09:11:28;;;;;;;;;;;;;;;-140.72;100.00;52737.84;5024115;28;19981;-73
2023/04/12 09:13:54;;;;;;;;;;;;;;;-140.72;100.00;52703.34;5028177;28;19944;-71
2023/04/12 09:16:37;;;;;;;;;;;;;;;-140.72;100.00;52762.22;5025487;28;19968;-71
2023/04/12 09:19:03;;;;;;;;;;;;;;;-140.72;100.00;52725.69;5030802;28;19921;-72
2023/04/12 09:21:29;;;;;;;;;;;;;;;-140.72;100.00;52760.19;5026610;28;19932;-72
2023/04/12 09:24:12;;;;;;;;;;;;;;;-140.72;100.00;52731.75;5016356;28;20383;-73
2023/04/12 09:26:37;;;;;;;;;;;;;;;-140.72;100.00;52707.41;5024615;28;20019;-73
2023/04/12 09:29:03;;;;;;;;;;;;;;;-140.72;100.00;52660.75;5025148;28;20013;-74
2023/04/12 09:31:28;;;;;;;;;;;;;;;-140.72;100.00;52687.13;5027178;28;19921;-76
2023/04/12 09:34:04;;;;;;;;;;;;;;;-140.72;100.00;52711.47;5020507;28;19925;-72
2023/04/12 09:36:36;;;;;;;;;;;;;;;-140.72;100.00;52707.41;5019223;27;20016;-71
2023/04/12 09:39:02;;;;;;;;;;;;;;;-140.72;100.00;52654.66;5020485;28;19972;-71
2023/04/12 09:41:30;;;;;;;;;;;;;;;-140.72;100.00;52697.28;5028447;28;19922;-76
2023/04/12 09:43:56;;;;;;;;;;;;;;;-140.72;62.68;52699.31;5033076;28;19970;-74
2023/04/12 09:46:22;;;;;;;;;;;;;;;-140.72;54.28;52687.13;5025362;28;19925;-73
2023/04/12 09:48:48;;;;;;;;;;;;;;;-140.72;71.03;52719.59;5023509;28;19928;-72
2023/04/12 09:51:22;;;;;;;;;;;;;;;-140.72;72.92;52721.63;5026778;28;19974;-78
2023/04/12 09:53:49;;;;;;;;;;;;;;;-140.72;68.77;52743.94;5020894;28;19974;-72
2023/04/12 09:56:14;;;;;;;;;;;;;;;-140.72;64.63;52676.97;5029716;28;19917;-74
2023/04/12 09:58:40;;;;;;;;;;;;;;;-140.72;46.70;52723.66;5030907;28;19928;-72
2023/04/12 10:01:08;;;;;;;;;;;;;;;-140.72;51.63;52715.53;5026617;28;19918;-72
2023/04/12 10:03:33;;;;;;;;;;;;;;;-140.72;25.13;52748.00;5026379;28;19927;-72
2023/04/12 10:05:59;;;;;;;;;;;;;;;-140.72;23.66;52715.53;5028931;28;19917;-72
2023/04/12 10:08:25;;;;;;;;;;;;;;;-140.72;33.36;52624.22;5027945;28;20008;-72
2023/04/12 10:10:51;;;;;;;;;;;;;;;-140.72;6.46;52634.38;5024799;28;19924;-71
2023/04/12 10:13:17;;;;;;;;;;;;;;;-140.72;5.03;52589.72;5022944;27;19921;-71
2023/04/12 10:15:44;;;;;;;;;;;;;;;-140.72;0.00;52488.25;5028122;28;20708;-71
2023/04/12 10:18:10;;;;;;;;;;;;;;;-140.72;0.00;52599.88;5029363;28;19925;-71
2023/04/12 10:20:38;;;;;;;;;;;;;;;-140.72;0.00;52599.88;5029603;28;19917;-71
2023/04/12 10:23:05;;;;;;;;;;;;;;;-140.72;0.00;52654.66;5021495;28;19921;-71
2023/04/12 10:25:30;;;;;;;;;;;;;;;-140.72;0.00;52569.44;5029727;28;19944;-71
2023/04/12 10:27:56;;;;;;;;;;;;;;;-140.72;0.00;52502.47;5030230;28;19960;-71
2023/04/12 10:30:21;;;;;;;;;;;;;;;-140.72;0.00;52528.84;5027775;28;20391;-70
2023/04/12 10:32:47;;;;;;;;;;;;;;;-140.72;0.00;52455.78;5029044;28;20451;-71
2023/04/12 10:35:15;;;;;;;;;;;;;;;-140.72;0.00;52510.59;5029821;28;19953;-71
2023/04/12 10:38:06;;;;;;;;;;;;;;;-140.72;0.00;52480.16;5029955;28;20452;-72
2023/04/12 10:40:32;;;;;;;;;;;;;;;-140.72;0.00;52427.38;5017021;28;19924;-71
2023/04/12 10:43:20;;;;;;;;;;;;;;;-140.72;0.00;52423.31;5024598;28;20380;-71
2023/04/12 10:45:46;;;;;;;;;;;;;;;-140.72;0.00;52465.94;5018204;28;19913;-71
2023/04/12 10:48:30;;;;;;;;;;;;;;;-140.72;0.00;52455.78;5027799;28;20011;-70
2023/04/12 10:51:15;;;;;;;;;;;;;;;-140.72;0.00;52388.84;5025163;28;19957;-71
2023/04/12 10:53:40;;;;;;;;;;;;;;;-140.72;0.00;52388.84;5026512;28;19928;-71
2023/04/12 10:56:24;;;;;;;;;;;;;;;-140.72;0.00;52376.66;5030860;28;19917;-71
2023/04/12 10:58:49;;;;;;;;;;;;;;;-140.72;0.00;52457.81;5029358;28;20434;-72
2023/04/12 11:01:18;;;;;;;;;;;;;;;-140.72;0.00;52470.00;5029782;28;19924;-71
2023/04/12 11:04:02;;;;;;;;;;;;;;;-140.72;0.00;52433.47;5020142;28;20000;-72
2023/04/12 11:06:40;;;;;;;;;;;;;;;-140.72;0.00;52488.25;5028736;28;20007;-71
2023/04/12 11:09:05;;;;;;;;;;;;;;;-140.72;0.00;52467.97;5028552;28;19921;-71
2023/04/12 11:11:33;;;;;;;;;;;;;;;-140.72;0.00;52526.81;5026487;28;19928;-70
2023/04/12 11:13:58;;;;;;;;;;;;;;;-140.72;0.00;52390.84;5026147;28;19939;-71
2023/04/12 11:16:24;;;;;;;;;;;;;;;-140.72;0.00;52396.94;5031644;27;20614;-71
2023/04/12 11:18:49;;;;;;;;;;;;;;;-140.72;0.00;52467.97;5030002;28;19917;-71
2023/04/12 11:21:15;;;;;;;;;;;;;;;-140.72;0.00;52536.97;5033291;27;19968;-71
2023/04/12 11:23:41;;;;;;;;;;;;;;;-140.72;0.00;52597.84;5030051;28;19965;-72
2023/04/12 11:26:07;;;;;;;;;;;;;;;-140.72;0.00;52638.41;5032449;28;20394;-71
2023/04/12 11:28:33;;;;;;;;;;;;;;;-140.72;0.00;52642.47;5034392;28;19917;-71
2023/04/12 11:31:25;;;;;;;;;;;;;;;-140.72;0.00;52650.59;5033390;27;19921;-73
2023/04/12 11:33:50;;;;;;;;;;;;;;;-140.72;0.00;52658.72;5038428;27;20393;-71
2023/04/12 11:36:16;;;;;;;;;;;;;;;-140.72;0.00;52626.25;5034835;27;19921;-71
2023/04/12 11:38:42;;;;;;;;;;;;;;;-140.72;0.00;52601.91;5033475;27;19921;-71
2023/04/12 11:41:08;;;;;;;;;;;;;;;-140.72;0.00;52660.75;5056914;27;19917;-72
2023/04/12 11:43:34;;;;;;;;;;;;;;;-140.72;0.00;52640.44;5033871;28;19928;-72
2023/04/12 11:46:00;;;;;;;;;;;;;;;-140.72;0.00;52585.66;5031098;28;19918;-74
2023/04/12 11:48:26;;;;;;;;;;;;;;;-140.72;0.00;52581.59;5028134;28;20355;-75
2023/04/12 11:50:52;;;;;;;;;;;;;;;-140.72;0.00;52626.25;5027039;28;20027;-75
2023/04/12 11:53:18;;;;;;;;;;;;;;;-140.72;0.00;52601.91;5034784;28;20444;-77
2023/04/12 11:55:48;;;;;;;;;;;;;;;-140.72;0.00;52634.38;5029153;28;19921;-71
2023/04/12 11:58:13;;;;;;;;;;;;;;;-140.72;0.00;52605.94;5029080;27;19966;-71
2023/04/12 12:00:40;;;;;;;;;;;;;;;-140.72;0.00;52626.25;5036111;28;20015;-72
2023/04/12 12:03:06;;;;;;;;;;;;;;;-140.72;0.00;52612.03;5035519;27;19925;-72
2023/04/12 12:05:35;;;;;;;;;;;;;;;-140.72;0.00;52654.66;5048460;27;20024;-71
2023/04/12 12:08:04;;;;;;;;;;;;;;;-140.72;0.00;52662.78;5041737;28;19996;-71
2023/04/12 12:10:29;;;;;;;;;;;;;;;-140.72;0.00;52689.16;5031651;28;19951;-71
2023/04/12 12:12:56;;;;;;;;;;;;;;;-140.72;0.00;52683.06;5030937;27;20367;-71
2023/04/12 12:15:21;;;;;;;;;;;;;;;-140.72;0.00;52679.00;5045367;28;19935;-70
2023/04/12 12:17:50;;;;;;;;;;;;;;;-140.72;0.00;52689.16;5034724;27;19927;-70
2023/04/12 12:20:19;;;;;;;;;;;;;;;-140.72;0.00;52679.00;5027779;27;19921;-70